sensor_id;sensor_type;location;lat;lon;timestamp;P1;durP1;ratioP1;P2;durP2;ratioP2
6840;SDS011;3458;53.678;14.080;2022-12-08T00:00:52;7.60;;;2.33;;
6840;SDS011;3458;53.678;14.080;2022-12-08T00:03:17;3.30;;;2.00;;
6840;SDS011;3458;53.678;14.080;2022-12-08T00:05:44;2.67;;;2.10;;
6840;SDS011;3458;53.678;14.080;2022-12-08T00:08:29;12.53;;;2.07;;
6840;SDS011;3458;53.678;14.080;2022-12-08T00:11:13;1.93;;;1.73;;
6840;SDS011;3458;53.678;14.080;2022-12-08T00:13:39;3.30;;;2.13;;
6840;SDS011;3458;53.678;14.080;2022-12-08T00:16:05;3.87;;;2.80;;
6840;SDS011;3458;53.678;14.080;2022-12-08T00:18:30;5.00;;;2.40;;
6840;SDS011;3458;53.678;14.080;2022-12-08T00:20:56;7.30;;;2.60;;
6840;SDS011;3458;53.678;14.080;2022-12-08T00:23:22;3.47;;;1.60;;
6840;SDS011;3458;53.678;14.080;2022-12-08T00:25:48;3.03;;;2.07;;
6840;SDS011;3458;53.678;14.080;2022-12-08T00:28:14;2.57;;;2.37;;
6840;SDS011;3458;53.678;14.080;2022-12-08T00:30:40;2.00;;;1.80;;
6840;SDS011;3458;53.678;14.080;2022-12-08T00:33:06;2.30;;;2.10;;
6840;SDS011;3458;53.678;14.080;2022-12-08T00:35:32;2.50;;;2.30;;
6840;SDS011;3458;53.678;14.080;2022-12-08T00:37:57;2.13;;;1.97;;
6840;SDS011;3458;53.678;14.080;2022-12-08T00:40:23;3.07;;;2.37;;
6840;SDS011;3458;53.678;14.080;2022-12-08T00:42:48;3.40;;;2.43;;
6840;SDS011;3458;53.678;14.080;2022-12-08T00:45:14;3.43;;;2.37;;
6840;SDS011;3458;53.678;14.080;2022-12-08T00:47:39;6.73;;;2.53;;
6840;SDS011;3458;53.678;14.080;2022-12-08T00:50:07;4.00;;;1.80;;
6840;SDS011;3458;53.678;14.080;2022-12-08T00:52:32;2.93;;;2.20;;
6840;SDS011;3458;53.678;14.080;2022-12-08T00:54:58;2.57;;;2.37;;
6840;SDS011;3458;53.678;14.080;2022-12-08T00:57:23;2.80;;;2.00;;
6840;SDS011;3458;53.678;14.080;2022-12-08T00:59:49;2.37;;;2.17;;
6840;SDS011;3458;53.678;14.080;2022-12-08T01:02:15;3.77;;;2.40;;
6840;SDS011;3458;53.678;14.080;2022-12-08T01:04:40;3.37;;;2.30;;
6840;SDS011;3458;53.678;14.080;2022-12-08T01:07:06;3.40;;;2.43;;
6840;SDS011;3458;53.678;14.080;2022-12-08T01:09:31;3.47;;;2.43;;
6840;SDS011;3458;53.678;14.080;2022-12-08T01:11:58;3.40;;;2.73;;
6840;SDS011;3458;53.678;14.080;2022-12-08T01:14:23;3.00;;;2.03;;
6840;SDS011;3458;53.678;14.080;2022-12-08T01:16:49;2.97;;;2.30;;
6840;SDS011;3458;53.678;14.080;2022-12-08T01:19:15;3.10;;;2.10;;
6840;SDS011;3458;53.678;14.080;2022-12-08T01:21:41;3.10;;;2.17;;
6840;SDS011;3458;53.678;14.080;2022-12-08T01:24:14;3.33;;;2.57;;
6840;SDS011;3458;53.678;14.080;2022-12-08T01:26:44;4.97;;;2.70;;
6840;SDS011;3458;53.678;14.080;2022-12-08T01:29:11;2.70;;;2.50;;
6840;SDS011;3458;53.678;14.080;2022-12-08T01:31:37;2.57;;;1.90;;
6840;SDS011;3458;53.678;14.080;2022-12-08T01:34:03;3.83;;;2.67;;
6840;SDS011;3458;53.678;14.080;2022-12-08T01:36:29;5.50;;;2.30;;
6840;SDS011;3458;53.678;14.080;2022-12-08T01:38:57;3.83;;;2.53;;
6840;SDS011;3458;53.678;14.080;2022-12-08T01:41:32;5.63;;;2.57;;
6840;SDS011;3458;53.678;14.080;2022-12-08T01:44:00;5.00;;;2.50;;
6840;SDS011;3458;53.678;14.080;2022-12-08T01:46:32;2.60;;;2.40;;
6840;SDS011;3458;53.678;14.080;2022-12-08T01:49:12;2.83;;;2.60;;
6840;SDS011;3458;53.678;14.080;2022-12-08T01:51:53;5.60;;;2.73;;
6840;SDS011;3458;53.678;14.080;2022-12-08T01:54:36;6.13;;;2.97;;
6840;SDS011;3458;53.678;14.080;2022-12-08T01:57:17;4.67;;;2.27;;
6840;SDS011;3458;53.678;14.080;2022-12-08T01:59:52;3.83;;;2.00;;
6840;SDS011;3458;53.678;14.080;2022-12-08T02:02:22;8.67;;;2.57;;
6840;SDS011;3458;53.678;14.080;2022-12-08T02:04:53;4.40;;;2.40;;
6840;SDS011;3458;53.678;14.080;2022-12-08T02:07:19;2.63;;;2.40;;
6840;SDS011;3458;53.678;14.080;2022-12-08T02:09:45;2.83;;;2.27;;
6840;SDS011;3458;53.678;14.080;2022-12-08T02:12:11;3.37;;;2.40;;
6840;SDS011;3458;53.678;14.080;2022-12-08T02:14:37;3.03;;;2.47;;
6840;SDS011;3458;53.678;14.080;2022-12-08T02:22:31;2.83;;;2.07;;
6840;SDS011;3458;53.678;14.080;2022-12-08T02:33:26;3.70;;;2.40;;
6840;SDS011;3458;53.678;14.080;2022-12-08T02:41:07;5.33;;;2.07;;
6840;SDS011;3458;53.678;14.080;2022-12-08T02:43:46;6.97;;;1.77;;
6840;SDS011;3458;53.678;14.080;2022-12-08T02:46:27;2.23;;;2.03;;
6840;SDS011;3458;53.678;14.080;2022-12-08T02:48:59;2.47;;;1.73;;
6840;SDS011;3458;53.678;14.080;2022-12-08T02:51:26;5.83;;;2.20;;
6840;SDS011;3458;53.678;14.080;2022-12-08T02:53:51;5.33;;;2.07;;
6840;SDS011;3458;53.678;14.080;2022-12-08T02:59:32;2.43;;;1.90;;
6840;SDS011;3458;53.678;14.080;2022-12-08T03:02:22;3.67;;;1.97;;
6840;SDS011;3458;53.678;14.080;2022-12-08T03:05:04;1.87;;;1.50;;
6840;SDS011;3458;53.678;14.080;2022-12-08T03:07:52;4.70;;;2.10;;
6840;SDS011;3458;53.678;14.080;2022-12-08T03:10:26;2.20;;;1.93;;
6840;SDS011;3458;53.678;14.080;2022-12-08T03:13:14;15.57;;;2.37;;
6840;SDS011;3458;53.678;14.080;2022-12-08T03:15:44;2.17;;;1.73;;
6840;SDS011;3458;53.678;14.080;2022-12-08T03:18:13;3.03;;;2.63;;
6840;SDS011;3458;53.678;14.080;2022-12-08T03:20:41;3.73;;;2.30;;
6840;SDS011;3458;53.678;14.080;2022-12-08T03:23:09;4.97;;;2.50;;
6840;SDS011;3458;53.678;14.080;2022-12-08T03:25:40;5.23;;;2.17;;
6840;SDS011;3458;53.678;14.080;2022-12-08T03:28:15;3.47;;;2.03;;
6840;SDS011;3458;53.678;14.080;2022-12-08T03:30:42;2.33;;;1.60;;
6840;SDS011;3458;53.678;14.080;2022-12-08T03:33:14;1.97;;;1.80;;
6840;SDS011;3458;53.678;14.080;2022-12-08T03:35:50;2.03;;;1.93;;
6840;SDS011;3458;53.678;14.080;2022-12-08T03:38:16;8.70;;;2.27;;
6840;SDS011;3458;53.678;14.080;2022-12-08T03:40:42;2.40;;;1.93;;
6840;SDS011;3458;53.678;14.080;2022-12-08T03:43:08;3.43;;;2.30;;
6840;SDS011;3458;53.678;14.080;2022-12-08T03:45:34;5.63;;;2.17;;
6840;SDS011;3458;53.678;14.080;2022-12-08T03:48:00;3.50;;;1.80;;
6840;SDS011;3458;53.678;14.080;2022-12-08T03:50:26;4.30;;;2.00;;
6840;SDS011;3458;53.678;14.080;2022-12-08T03:52:52;2.83;;;1.73;;
6840;SDS011;3458;53.678;14.080;2022-12-08T03:55:17;2.50;;;1.50;;
6840;SDS011;3458;53.678;14.080;2022-12-08T03:57:45;2.17;;;1.97;;
6840;SDS011;3458;53.678;14.080;2022-12-08T04:00:12;1.80;;;1.70;;
6840;SDS011;3458;53.678;14.080;2022-12-08T04:02:39;2.20;;;1.57;;
6840;SDS011;3458;53.678;14.080;2022-12-08T04:05:05;1.50;;;1.40;;
6840;SDS011;3458;53.678;14.080;2022-12-08T04:07:31;1.53;;;1.43;;
6840;SDS011;3458;53.678;14.080;2022-12-08T04:09:56;2.83;;;1.70;;
6840;SDS011;3458;53.678;14.080;2022-12-08T04:12:22;5.40;;;1.73;;
6840;SDS011;3458;53.678;14.080;2022-12-08T04:14:47;4.33;;;2.10;;
6840;SDS011;3458;53.678;14.080;2022-12-08T04:17:13;3.20;;;1.30;;
6840;SDS011;3458;53.678;14.080;2022-12-08T04:19:38;3.23;;;1.70;;
6840;SDS011;3458;53.678;14.080;2022-12-08T04:22:05;2.10;;;1.90;;
6840;SDS011;3458;53.678;14.080;2022-12-08T04:24:31;2.07;;;1.67;;
6840;SDS011;3458;53.678;14.080;2022-12-08T04:26:56;5.20;;;1.93;;
6840;SDS011;3458;53.678;14.080;2022-12-08T04:29:22;2.00;;;1.80;;
6840;SDS011;3458;53.678;14.080;2022-12-08T04:31:47;1.73;;;1.63;;
6840;SDS011;3458;53.678;14.080;2022-12-08T04:34:13;2.03;;;1.77;;
6840;SDS011;3458;53.678;14.080;2022-12-08T04:36:38;4.10;;;1.73;;
6840;SDS011;3458;53.678;14.080;2022-12-08T04:39:04;2.37;;;2.17;;
6840;SDS011;3458;53.678;14.080;2022-12-08T04:41:29;4.83;;;1.90;;
6840;SDS011;3458;53.678;14.080;2022-12-08T04:43:55;1.87;;;1.50;;
6840;SDS011;3458;53.678;14.080;2022-12-08T04:46:20;7.17;;;2.30;;
6840;SDS011;3458;53.678;14.080;2022-12-08T04:48:46;11.23;;;2.07;;
6840;SDS011;3458;53.678;14.080;2022-12-08T04:51:14;1.90;;;1.37;;
6840;SDS011;3458;53.678;14.080;2022-12-08T04:53:41;4.30;;;1.87;;
6840;SDS011;3458;53.678;14.080;2022-12-08T04:56:10;2.10;;;1.90;;
6840;SDS011;3458;53.678;14.080;2022-12-08T04:58:37;5.10;;;2.03;;
6840;SDS011;3458;53.678;14.080;2022-12-08T05:01:02;2.10;;;1.90;;
6840;SDS011;3458;53.678;14.080;2022-12-08T05:03:28;2.90;;;1.90;;
6840;SDS011;3458;53.678;14.080;2022-12-08T05:05:54;3.77;;;2.77;;
6840;SDS011;3458;53.678;14.080;2022-12-08T05:08:19;5.30;;;1.90;;
6840;SDS011;3458;53.678;14.080;2022-12-08T05:10:45;3.23;;;1.97;;
6840;SDS011;3458;53.678;14.080;2022-12-08T05:13:10;2.50;;;2.10;;
6840;SDS011;3458;53.678;14.080;2022-12-08T05:15:36;2.27;;;2.10;;
6840;SDS011;3458;53.678;14.080;2022-12-08T05:18:03;3.23;;;1.73;;
6840;SDS011;3458;53.678;14.080;2022-12-08T05:20:29;1.83;;;1.73;;
6840;SDS011;3458;53.678;14.080;2022-12-08T05:22:55;8.33;;;2.53;;
6840;SDS011;3458;53.678;14.080;2022-12-08T05:25:20;3.23;;;1.80;;
6840;SDS011;3458;53.678;14.080;2022-12-08T05:27:46;2.80;;;2.50;;
6840;SDS011;3458;53.678;14.080;2022-12-08T05:30:11;15.67;;;6.60;;
6840;SDS011;3458;53.678;14.080;2022-12-08T05:32:37;11.30;;;4.97;;
6840;SDS011;3458;53.678;14.080;2022-12-08T05:35:03;9.87;;;4.67;;
6840;SDS011;3458;53.678;14.080;2022-12-08T05:37:28;6.57;;;4.00;;
6840;SDS011;3458;53.678;14.080;2022-12-08T05:39:54;9.07;;;4.60;;
6840;SDS011;3458;53.678;14.080;2022-12-08T05:42:19;10.33;;;5.60;;
6840;SDS011;3458;53.678;14.080;2022-12-08T05:44:45;20.63;;;8.27;;
6840;SDS011;3458;53.678;14.080;2022-12-08T05:47:10;5.27;;;2.73;;
6840;SDS011;3458;53.678;14.080;2022-12-08T05:49:36;2.33;;;1.77;;
6840;SDS011;3458;53.678;14.080;2022-12-08T05:52:01;10.07;;;2.10;;
6840;SDS011;3458;53.678;14.080;2022-12-08T05:54:27;5.63;;;1.93;;
6840;SDS011;3458;53.678;14.080;2022-12-08T05:56:52;4.50;;;2.53;;
6840;SDS011;3458;53.678;14.080;2022-12-08T05:59:18;2.77;;;1.90;;
6840;SDS011;3458;53.678;14.080;2022-12-08T06:01:43;3.17;;;2.50;;
6840;SDS011;3458;53.678;14.080;2022-12-08T06:04:09;7.37;;;2.20;;
6840;SDS011;3458;53.678;14.080;2022-12-08T06:06:34;4.00;;;2.33;;
6840;SDS011;3458;53.678;14.080;2022-12-08T06:09:01;3.60;;;2.60;;
6840;SDS011;3458;53.678;14.080;2022-12-08T06:11:28;6.30;;;3.50;;
6840;SDS011;3458;53.678;14.080;2022-12-08T06:13:55;10.03;;;3.90;;
6840;SDS011;3458;53.678;14.080;2022-12-08T06:16:21;5.83;;;3.33;;
6840;SDS011;3458;53.678;14.080;2022-12-08T06:18:48;10.83;;;3.90;;
6840;SDS011;3458;53.678;14.080;2022-12-08T06:21:14;6.33;;;3.10;;
6840;SDS011;3458;53.678;14.080;2022-12-08T06:23:40;13.23;;;3.20;;
6840;SDS011;3458;53.678;14.080;2022-12-08T06:26:10;4.60;;;2.97;;
6840;SDS011;3458;53.678;14.080;2022-12-08T06:28:37;3.53;;;2.47;;
6840;SDS011;3458;53.678;14.080;2022-12-08T06:31:08;4.00;;;2.57;;
6840;SDS011;3458;53.678;14.080;2022-12-08T06:33:36;5.53;;;3.67;;
6840;SDS011;3458;53.678;14.080;2022-12-08T06:36:02;6.03;;;3.73;;
6840;SDS011;3458;53.678;14.080;2022-12-08T06:38:28;6.50;;;2.50;;
6840;SDS011;3458;53.678;14.080;2022-12-08T06:40:54;3.90;;;2.90;;
6840;SDS011;3458;53.678;14.080;2022-12-08T06:43:21;6.33;;;3.50;;
6840;SDS011;3458;53.678;14.080;2022-12-08T06:45:46;6.93;;;3.87;;
6840;SDS011;3458;53.678;14.080;2022-12-08T06:48:12;7.90;;;3.87;;
6840;SDS011;3458;53.678;14.080;2022-12-08T06:50:38;15.30;;;6.67;;
6840;SDS011;3458;53.678;14.080;2022-12-08T06:53:03;28.13;;;12.40;;
6840;SDS011;3458;53.678;14.080;2022-12-08T06:55:29;16.97;;;7.57;;
6840;SDS011;3458;53.678;14.080;2022-12-08T06:57:54;42.53;;;17.47;;
6840;SDS011;3458;53.678;14.080;2022-12-08T07:00:20;32.00;;;13.53;;
6840;SDS011;3458;53.678;14.080;2022-12-08T07:02:45;20.30;;;9.57;;
6840;SDS011;3458;53.678;14.080;2022-12-08T07:05:11;12.33;;;7.27;;
6840;SDS011;3458;53.678;14.080;2022-12-08T07:07:36;13.40;;;6.70;;
6840;SDS011;3458;53.678;14.080;2022-12-08T07:10:02;15.23;;;6.63;;
6840;SDS011;3458;53.678;14.080;2022-12-08T07:12:28;10.87;;;4.53;;
6840;SDS011;3458;53.678;14.080;2022-12-08T07:14:53;12.53;;;6.00;;
6840;SDS011;3458;53.678;14.080;2022-12-08T07:17:19;9.13;;;5.77;;
6840;SDS011;3458;53.678;14.080;2022-12-08T07:19:44;8.80;;;4.37;;
6840;SDS011;3458;53.678;14.080;2022-12-08T07:22:10;6.00;;;4.57;;
6840;SDS011;3458;53.678;14.080;2022-12-08T07:24:35;11.00;;;5.13;;
6840;SDS011;3458;53.678;14.080;2022-12-08T07:27:01;9.07;;;4.80;;
6840;SDS011;3458;53.678;14.080;2022-12-08T07:29:26;11.30;;;6.00;;
6840;SDS011;3458;53.678;14.080;2022-12-08T07:31:52;5.63;;;3.93;;
6840;SDS011;3458;53.678;14.080;2022-12-08T07:34:17;7.33;;;3.87;;
6840;SDS011;3458;53.678;14.080;2022-12-08T07:36:43;8.60;;;4.17;;
6840;SDS011;3458;53.678;14.080;2022-12-08T07:39:12;9.40;;;4.80;;
6840;SDS011;3458;53.678;14.080;2022-12-08T07:41:38;6.80;;;3.93;;
6840;SDS011;3458;53.678;14.080;2022-12-08T07:44:03;14.30;;;4.83;;
6840;SDS011;3458;53.678;14.080;2022-12-08T07:46:29;7.87;;;4.33;;
6840;SDS011;3458;53.678;14.080;2022-12-08T07:48:54;11.53;;;5.20;;
6840;SDS011;3458;53.678;14.080;2022-12-08T07:51:21;15.70;;;5.30;;
6840;SDS011;3458;53.678;14.080;2022-12-08T07:53:47;8.30;;;5.77;;
6840;SDS011;3458;53.678;14.080;2022-12-08T07:56:14;13.43;;;5.70;;
6840;SDS011;3458;53.678;14.080;2022-12-08T07:58:40;6.70;;;4.53;;
6840;SDS011;3458;53.678;14.080;2022-12-08T08:01:16;6.20;;;4.70;;
6840;SDS011;3458;53.678;14.080;2022-12-08T08:03:53;11.27;;;5.67;;
6840;SDS011;3458;53.678;14.080;2022-12-08T08:06:20;8.23;;;5.23;;
6840;SDS011;3458;53.678;14.080;2022-12-08T08:08:45;8.53;;;5.10;;
6840;SDS011;3458;53.678;14.080;2022-12-08T08:11:11;10.80;;;5.57;;
6840;SDS011;3458;53.678;14.080;2022-12-08T08:13:37;10.07;;;6.10;;
6840;SDS011;3458;53.678;14.080;2022-12-08T08:16:03;9.47;;;5.30;;
6840;SDS011;3458;53.678;14.080;2022-12-08T08:18:29;10.63;;;6.20;;
6840;SDS011;3458;53.678;14.080;2022-12-08T08:20:55;10.53;;;6.20;;
6840;SDS011;3458;53.678;14.080;2022-12-08T08:23:21;14.50;;;6.13;;
6840;SDS011;3458;53.678;14.080;2022-12-08T08:25:46;10.87;;;6.90;;
6840;SDS011;3458;53.678;14.080;2022-12-08T08:28:12;10.03;;;5.37;;
6840;SDS011;3458;53.678;14.080;2022-12-08T08:30:39;11.67;;;6.60;;
6840;SDS011;3458;53.678;14.080;2022-12-08T08:33:05;13.63;;;6.03;;
6840;SDS011;3458;53.678;14.080;2022-12-08T08:35:30;14.37;;;6.00;;
6840;SDS011;3458;53.678;14.080;2022-12-08T08:37:56;12.93;;;6.60;;
6840;SDS011;3458;53.678;14.080;2022-12-08T08:40:22;9.50;;;7.03;;
6840;SDS011;3458;53.678;14.080;2022-12-08T08:42:47;16.53;;;7.67;;
6840;SDS011;3458;53.678;14.080;2022-12-08T08:45:13;15.43;;;6.40;;
6840;SDS011;3458;53.678;14.080;2022-12-08T08:47:39;11.90;;;6.10;;
6840;SDS011;3458;53.678;14.080;2022-12-08T08:50:04;12.10;;;7.10;;
6840;SDS011;3458;53.678;14.080;2022-12-08T08:52:30;10.20;;;6.40;;
6840;SDS011;3458;53.678;14.080;2022-12-08T08:54:56;11.90;;;6.63;;
6840;SDS011;3458;53.678;14.080;2022-12-08T08:57:21;10.23;;;5.77;;
6840;SDS011;3458;53.678;14.080;2022-12-08T08:59:47;11.50;;;6.17;;
6840;SDS011;3458;53.678;14.080;2022-12-08T09:02:14;16.37;;;9.43;;
6840;SDS011;3458;53.678;14.080;2022-12-08T09:04:41;13.43;;;6.57;;
6840;SDS011;3458;53.678;14.080;2022-12-08T09:07:06;12.97;;;6.23;;
6840;SDS011;3458;53.678;14.080;2022-12-08T09:09:32;10.30;;;6.40;;
6840;SDS011;3458;53.678;14.080;2022-12-08T09:11:57;12.20;;;6.70;;
6840;SDS011;3458;53.678;14.080;2022-12-08T09:14:23;14.53;;;6.20;;
6840;SDS011;3458;53.678;14.080;2022-12-08T09:16:49;14.83;;;7.70;;
6840;SDS011;3458;53.678;14.080;2022-12-08T09:19:14;15.40;;;6.83;;
6840;SDS011;3458;53.678;14.080;2022-12-08T09:21:40;11.07;;;6.80;;
6840;SDS011;3458;53.678;14.080;2022-12-08T09:24:06;15.70;;;8.10;;
6840;SDS011;3458;53.678;14.080;2022-12-08T09:26:34;15.07;;;7.10;;
6840;SDS011;3458;53.678;14.080;2022-12-08T09:28:59;14.20;;;7.23;;
6840;SDS011;3458;53.678;14.080;2022-12-08T09:31:25;11.10;;;5.77;;
6840;SDS011;3458;53.678;14.080;2022-12-08T09:33:51;13.30;;;7.47;;
6840;SDS011;3458;53.678;14.080;2022-12-08T09:36:16;15.87;;;8.30;;
6840;SDS011;3458;53.678;14.080;2022-12-08T09:38:42;11.17;;;7.20;;
6840;SDS011;3458;53.678;14.080;2022-12-08T09:41:50;16.33;;;7.57;;
6840;SDS011;3458;53.678;14.080;2022-12-08T09:44:12;12.43;;;7.10;;
6840;SDS011;3458;53.678;14.080;2022-12-08T09:47:12;12.30;;;6.07;;
6840;SDS011;3458;53.678;14.080;2022-12-08T09:49:51;16.20;;;8.43;;
6840;SDS011;3458;53.678;14.080;2022-12-08T09:52:28;17.10;;;9.13;;
6840;SDS011;3458;53.678;14.080;2022-12-08T09:54:58;16.47;;;8.60;;
6840;SDS011;3458;53.678;14.080;2022-12-08T09:57:27;15.87;;;8.57;;
6840;SDS011;3458;53.678;14.080;2022-12-08T09:59:56;18.50;;;10.20;;
6840;SDS011;3458;53.678;14.080;2022-12-08T10:02:25;22.70;;;9.17;;
6840;SDS011;3458;53.678;14.080;2022-12-08T10:04:54;19.13;;;9.20;;
6840;SDS011;3458;53.678;14.080;2022-12-08T10:07:32;18.43;;;10.73;;
6840;SDS011;3458;53.678;14.080;2022-12-08T10:10:11;16.70;;;9.90;;
6840;SDS011;3458;53.678;14.080;2022-12-08T10:12:54;13.80;;;8.20;;
6840;SDS011;3458;53.678;14.080;2022-12-08T10:18:16;12.67;;;7.80;;
6840;SDS011;3458;53.678;14.080;2022-12-08T10:20:44;12.77;;;7.83;;
6840;SDS011;3458;53.678;14.080;2022-12-08T10:26:04;18.53;;;8.83;;
6840;SDS011;3458;53.678;14.080;2022-12-08T10:28:32;15.40;;;8.20;;
6840;SDS011;3458;53.678;14.080;2022-12-08T10:30:58;14.00;;;8.47;;
6840;SDS011;3458;53.678;14.080;2022-12-08T10:33:24;22.20;;;8.80;;
6840;SDS011;3458;53.678;14.080;2022-12-08T10:35:51;20.47;;;9.90;;
6840;SDS011;3458;53.678;14.080;2022-12-08T10:38:31;18.27;;;10.03;;
6840;SDS011;3458;53.678;14.080;2022-12-08T10:41:00;19.00;;;10.90;;
6840;SDS011;3458;53.678;14.080;2022-12-08T10:43:30;27.00;;;13.10;;
6840;SDS011;3458;53.678;14.080;2022-12-08T10:46:06;16.20;;;9.37;;
6840;SDS011;3458;53.678;14.080;2022-12-08T10:48:40;14.33;;;9.10;;
6840;SDS011;3458;53.678;14.080;2022-12-08T10:51:27;20.33;;;10.60;;
6840;SDS011;3458;53.678;14.080;2022-12-08T10:53:59;17.07;;;10.40;;
6840;SDS011;3458;53.678;14.080;2022-12-08T10:56:28;16.70;;;8.73;;
6840;SDS011;3458;53.678;14.080;2022-12-08T10:59:05;16.73;;;9.80;;
6840;SDS011;3458;53.678;14.080;2022-12-08T11:01:44;18.90;;;10.30;;
6840;SDS011;3458;53.678;14.080;2022-12-08T11:04:14;21.47;;;12.40;;
6840;SDS011;3458;53.678;14.080;2022-12-08T11:06:45;23.20;;;13.23;;
6840;SDS011;3458;53.678;14.080;2022-12-08T11:14:29;23.53;;;12.00;;
6840;SDS011;3458;53.678;14.080;2022-12-08T11:19:57;20.90;;;11.17;;
6840;SDS011;3458;53.678;14.080;2022-12-08T11:22:42;18.77;;;9.60;;
6840;SDS011;3458;53.678;14.080;2022-12-08T11:25:20;22.33;;;11.00;;
6840;SDS011;3458;53.678;14.080;2022-12-08T11:27:49;24.50;;;13.50;;
6840;SDS011;3458;53.678;14.080;2022-12-08T11:30:20;27.07;;;11.77;;
6840;SDS011;3458;53.678;14.080;2022-12-08T11:32:59;23.40;;;12.20;;
6840;SDS011;3458;53.678;14.080;2022-12-08T11:35:33;18.87;;;10.13;;
6840;SDS011;3458;53.678;14.080;2022-12-08T11:38:04;18.47;;;11.00;;
6840;SDS011;3458;53.678;14.080;2022-12-08T11:40:36;17.87;;;9.80;;
6840;SDS011;3458;53.678;14.080;2022-12-08T11:46:00;19.97;;;11.10;;
6840;SDS011;3458;53.678;14.080;2022-12-08T11:51:20;24.23;;;13.30;;
6840;SDS011;3458;53.678;14.080;2022-12-08T11:56:52;22.20;;;11.80;;
6840;SDS011;3458;53.678;14.080;2022-12-08T11:59:33;23.33;;;13.80;;
6840;SDS011;3458;53.678;14.080;2022-12-08T12:02:03;21.53;;;11.73;;
6840;SDS011;3458;53.678;14.080;2022-12-08T12:04:44;27.90;;;12.17;;
6840;SDS011;3458;53.678;14.080;2022-12-08T12:07:22;20.43;;;10.10;;
6840;SDS011;3458;53.678;14.080;2022-12-08T12:13:03;16.50;;;10.20;;
6840;SDS011;3458;53.678;14.080;2022-12-08T12:16:07;20.50;;;9.23;;
6840;SDS011;3458;53.678;14.080;2022-12-08T12:18:49;16.70;;;9.43;;
6840;SDS011;3458;53.678;14.080;2022-12-08T12:21:33;15.30;;;8.43;;
6840;SDS011;3458;53.678;14.080;2022-12-08T12:24:36;17.63;;;10.17;;
6840;SDS011;3458;53.678;14.080;2022-12-08T12:27:01;16.97;;;9.43;;
6840;SDS011;3458;53.678;14.080;2022-12-08T12:29:46;18.37;;;8.83;;
6840;SDS011;3458;53.678;14.080;2022-12-08T12:32:19;13.97;;;8.13;;
6840;SDS011;3458;53.678;14.080;2022-12-08T12:34:47;19.53;;;9.77;;
6840;SDS011;3458;53.678;14.080;2022-12-08T12:37:17;17.30;;;9.70;;
6840;SDS011;3458;53.678;14.080;2022-12-08T12:39:49;16.23;;;9.37;;
6840;SDS011;3458;53.678;14.080;2022-12-08T12:47:51;19.50;;;10.47;;
6840;SDS011;3458;53.678;14.080;2022-12-08T12:50:41;20.77;;;10.50;;
6840;SDS011;3458;53.678;14.080;2022-12-08T12:55:53;17.57;;;9.27;;
6840;SDS011;3458;53.678;14.080;2022-12-08T12:58:21;14.43;;;9.80;;
6840;SDS011;3458;53.678;14.080;2022-12-08T13:03:39;15.67;;;9.60;;
6840;SDS011;3458;53.678;14.080;2022-12-08T13:06:31;14.53;;;8.83;;
6840;SDS011;3458;53.678;14.080;2022-12-08T13:09:00;15.97;;;9.60;;
6840;SDS011;3458;53.678;14.080;2022-12-08T13:11:26;16.83;;;9.77;;
6840;SDS011;3458;53.678;14.080;2022-12-08T13:13:59;16.30;;;9.27;;
6840;SDS011;3458;53.678;14.080;2022-12-08T13:16:30;15.90;;;8.60;;
6840;SDS011;3458;53.678;14.080;2022-12-08T13:18:58;17.97;;;9.00;;
6840;SDS011;3458;53.678;14.080;2022-12-08T13:21:34;55.87;;;29.20;;
6840;SDS011;3458;53.678;14.080;2022-12-08T13:24:35;30.77;;;16.60;;
6840;SDS011;3458;53.678;14.080;2022-12-08T13:29:33;36.23;;;17.27;;
6840;SDS011;3458;53.678;14.080;2022-12-08T13:42:49;22.07;;;12.00;;
6840;SDS011;3458;53.678;14.080;2022-12-08T13:45:02;14.60;;;8.60;;
6840;SDS011;3458;53.678;14.080;2022-12-08T13:47:44;12.57;;;7.30;;
6840;SDS011;3458;53.678;14.080;2022-12-08T13:50:14;12.40;;;7.40;;
6840;SDS011;3458;53.678;14.080;2022-12-08T13:52:49;12.60;;;7.67;;
6840;SDS011;3458;53.678;14.080;2022-12-08T13:55:24;13.50;;;7.83;;
6840;SDS011;3458;53.678;14.080;2022-12-08T13:57:53;9.87;;;6.07;;
6840;SDS011;3458;53.678;14.080;2022-12-08T14:00:20;10.73;;;7.23;;
6840;SDS011;3458;53.678;14.080;2022-12-08T14:02:48;13.27;;;6.43;;
6840;SDS011;3458;53.678;14.080;2022-12-08T14:05:16;13.07;;;6.87;;
6840;SDS011;3458;53.678;14.080;2022-12-08T14:07:44;11.20;;;6.00;;
6840;SDS011;3458;53.678;14.080;2022-12-08T14:10:14;9.90;;;5.97;;
6840;SDS011;3458;53.678;14.080;2022-12-08T14:12:54;14.63;;;6.87;;
6840;SDS011;3458;53.678;14.080;2022-12-08T14:15:27;12.97;;;6.93;;
6840;SDS011;3458;53.678;14.080;2022-12-08T14:17:56;11.70;;;5.93;;
6840;SDS011;3458;53.678;14.080;2022-12-08T14:20:23;12.37;;;6.20;;
6840;SDS011;3458;53.678;14.080;2022-12-08T14:22:53;11.20;;;6.10;;
6840;SDS011;3458;53.678;14.080;2022-12-08T14:25:20;11.07;;;6.20;;
6840;SDS011;3458;53.678;14.080;2022-12-08T14:27:46;12.77;;;7.23;;
6840;SDS011;3458;53.678;14.080;2022-12-08T14:37:48;14.77;;;8.57;;
6840;SDS011;3458;53.678;14.080;2022-12-08T14:40:19;34.67;;;18.30;;
6840;SDS011;3458;53.678;14.080;2022-12-08T14:43:37;13.37;;;7.40;;
6840;SDS011;3458;53.678;14.080;2022-12-08T14:48:21;11.43;;;6.40;;
6840;SDS011;3458;53.678;14.080;2022-12-08T14:54:00;9.23;;;6.10;;
6840;SDS011;3458;53.678;14.080;2022-12-08T14:56:31;13.73;;;7.20;;
6840;SDS011;3458;53.678;14.080;2022-12-08T15:01:35;9.53;;;6.23;;
6840;SDS011;3458;53.678;14.080;2022-12-08T15:04:06;14.50;;;6.77;;
6840;SDS011;3458;53.678;14.080;2022-12-08T15:06:31;11.87;;;6.10;;
6840;SDS011;3458;53.678;14.080;2022-12-08T15:08:57;11.50;;;5.70;;
6840;SDS011;3458;53.678;14.080;2022-12-08T15:11:37;18.10;;;6.97;;
6840;SDS011;3458;53.678;14.080;2022-12-08T15:14:02;16.23;;;7.03;;
6840;SDS011;3458;53.678;14.080;2022-12-08T15:19:13;11.00;;;6.00;;
6840;SDS011;3458;53.678;14.080;2022-12-08T15:21:51;11.90;;;6.47;;
6840;SDS011;3458;53.678;14.080;2022-12-08T15:24:17;8.63;;;5.43;;
6840;SDS011;3458;53.678;14.080;2022-12-08T15:26:46;9.57;;;6.47;;
6840;SDS011;3458;53.678;14.080;2022-12-08T15:29:17;8.73;;;5.60;;
6840;SDS011;3458;53.678;14.080;2022-12-08T15:31:52;10.90;;;6.33;;
6840;SDS011;3458;53.678;14.080;2022-12-08T15:34:20;15.07;;;8.27;;
6840;SDS011;3458;53.678;14.080;2022-12-08T15:36:46;18.40;;;9.17;;
6840;SDS011;3458;53.678;14.080;2022-12-08T15:39:35;24.03;;;8.97;;
6840;SDS011;3458;53.678;14.080;2022-12-08T15:42:00;14.30;;;7.77;;
6840;SDS011;3458;53.678;14.080;2022-12-08T15:44:27;11.97;;;6.63;;
6840;SDS011;3458;53.678;14.080;2022-12-08T15:46:57;15.20;;;6.90;;
6840;SDS011;3458;53.678;14.080;2022-12-08T15:49:23;12.27;;;6.03;;
6840;SDS011;3458;53.678;14.080;2022-12-08T15:51:49;13.97;;;6.17;;
6840;SDS011;3458;53.678;14.080;2022-12-08T15:54:15;22.50;;;10.53;;
6840;SDS011;3458;53.678;14.080;2022-12-08T15:56:51;24.57;;;13.80;;
6840;SDS011;3458;53.678;14.080;2022-12-08T15:59:22;15.80;;;6.90;;
6840;SDS011;3458;53.678;14.080;2022-12-08T16:01:49;12.30;;;6.30;;
6840;SDS011;3458;53.678;14.080;2022-12-08T16:04:20;12.37;;;7.10;;
6840;SDS011;3458;53.678;14.080;2022-12-08T16:06:47;11.90;;;6.13;;
6840;SDS011;3458;53.678;14.080;2022-12-08T16:09:15;12.10;;;7.00;;
6840;SDS011;3458;53.678;14.080;2022-12-08T16:11:54;11.93;;;6.20;;
6840;SDS011;3458;53.678;14.080;2022-12-08T16:14:38;12.70;;;6.60;;
6840;SDS011;3458;53.678;14.080;2022-12-08T16:17:05;11.57;;;6.00;;
6840;SDS011;3458;53.678;14.080;2022-12-08T16:19:37;11.30;;;6.57;;
6840;SDS011;3458;53.678;14.080;2022-12-08T16:22:02;14.53;;;7.13;;
6840;SDS011;3458;53.678;14.080;2022-12-08T16:24:27;17.43;;;7.60;;
6840;SDS011;3458;53.678;14.080;2022-12-08T16:26:53;24.00;;;9.93;;
6840;SDS011;3458;53.678;14.080;2022-12-08T16:29:19;19.60;;;7.17;;
6840;SDS011;3458;53.678;14.080;2022-12-08T16:31:45;14.10;;;8.40;;
6840;SDS011;3458;53.678;14.080;2022-12-08T16:34:11;37.90;;;19.80;;
6840;SDS011;3458;53.678;14.080;2022-12-08T16:36:36;25.73;;;13.37;;